Time;durP1;ratioP1;P1;durP2;ratioP2;P2;SDS_P1;SDS_P2;PMS_P1;PMS_P2;Temp;Humidity;BMP_temperature;BMP_pressure;BME280_temperature;BME280_humidity;BME280_pressure;Samples;Min_cycle;Max_cycle;Signal;HPM_P1;HPM_P2
2023/02/19 00:00:53;;;;;;;10.82;5.10;;;;;;;;;;5071801;28;19912;-58
2023/02/19 00:03:18;;;;;;;5.53;4.25;;;;;;;;;;5072029;28;20131;-58
2023/02/19 00:05:43;;;;;;;6.90;4.80;;;;;;;;;;5072585;28;20036;-59
2023/02/19 00:08:12;;;;;;;8.38;4.65;;;;;;;;;;5068728;28;20039;-59
2023/02/19 00:10:37;;;;;;;10.50;4.57;;;;;;;;;;5071213;28;20043;-58
2023/02/19 00:13:02;;;;;;;6.30;3.83;;;;;;;;;;5076798;28;20028;-59
2023/02/19 00:15:31;;;;;;;7.35;4.28;;;;;;;;;;5071905;28;20020;-59
2023/02/19 00:17:57;;;;;;;6.80;4.40;;;;;;;;;;5070118;28;20508;-59
2023/02/19 00:20:22;;;;;;;7.05;4.65;;;;;;;;;;5071391;28;20028;-59
2023/02/19 00:22:47;;;;;;;8.55;4.95;;;;;;;;;;5072341;28;20055;-59
2023/02/19 00:25:13;;;;;;;7.72;4.70;;;;;;;;;;5071632;28;20115;-59
2023/02/19 00:27:38;;;;;;;7.43;4.45;;;;;;;;;;5069754;28;20020;-58
2023/02/19 00:30:04;;;;;;;7.32;4.47;;;;;;;;;;5071137;28;20374;-58
2023/02/19 00:32:29;;;;;;;9.40;5.30;;;;;;;;;;5069228;28;20028;-58
2023/02/19 00:34:55;;;;;;;7.05;4.35;;;;;;;;;;5069186;28;20086;-59
2023/02/19 00:37:20;;;;;;;7.07;4.95;;;;;;;;;;5069015;28;20052;-58
2023/02/19 00:39:45;;;;;;;7.15;4.57;;;;;;;;;;5067579;28;20027;-59
2023/02/19 00:42:11;;;;;;;11.95;4.53;;;;;;;;;;5066938;28;20048;-58
2023/02/19 00:44:36;;;;;;;7.68;4.45;;;;;;;;;;5068990;28;20464;-59
2023/02/19 00:47:01;;;;;;;8.27;4.82;;;;;;;;;;5066469;28;20028;-60
2023/02/19 00:49:27;;;;;;;7.72;4.68;;;;;;;;;;5070564;28;20051;-59
2023/02/19 00:51:52;;;;;;;7.40;4.70;;;;;;;;;;5071618;28;20024;-58
2023/02/19 00:54:18;;;;;;;7.28;4.70;;;;;;;;;;5069907;28;20534;-60
2023/02/19 00:56:43;;;;;;;7.28;4.72;;;;;;;;;;5068361;28;20021;-58
2023/02/19 00:59:09;;;;;;;8.35;4.95;;;;;;;;;;5061492;28;20029;-59
2023/02/19 01:01:34;;;;;;;8.10;5.00;;;;;;;;;;5073722;28;20036;-59
2023/02/19 01:04:00;;;;;;;8.48;5.32;;;;;;;;;;5070455;28;20097;-59
2023/02/19 01:06:28;;;;;;;9.10;5.22;;;;;;;;;;5069245;28;20031;-59
2023/02/19 01:08:55;;;;;;;9.43;4.50;;;;;;;;;;5070833;28;20385;-58
2023/02/19 01:11:20;;;;;;;9.32;5.05;;;;;;;;;;5070696;28;20056;-58
2023/02/19 01:13:46;;;;;;;7.18;4.97;;;;;;;;;;5070158;28;20059;-58
2023/02/19 01:16:15;;;;;;;7.38;4.55;;;;;;;;;;5069494;28;20028;-58
2023/02/19 01:18:41;;;;;;;6.60;4.97;;;;;;;;;;5068661;28;20527;-58
2023/02/19 01:21:15;;;;;;;8.25;4.78;;;;;;;;;;5068880;28;20107;-58
2023/02/19 01:23:41;;;;;;;7.72;4.78;;;;;;;;;;5068032;28;20390;-57
2023/02/19 01:26:09;;;;;;;11.60;5.05;;;;;;;;;;5069358;28;20035;-57
2023/02/19 01:28:35;;;;;;;9.68;5.18;;;;;;;;;;5069216;28;20123;-58
2023/02/19 01:31:03;;;;;;;9.55;4.68;;;;;;;;;;5070865;28;20031;-58
2023/02/19 01:33:29;;;;;;;9.82;4.75;;;;;;;;;;5066600;28;20028;-58
2023/02/19 01:35:54;;;;;;;10.63;4.78;;;;;;;;;;5068275;28;20024;-59
2023/02/19 01:38:20;;;;;;;7.07;4.80;;;;;;;;;;5068983;28;20028;-58
2023/02/19 01:40:56;;;;;;;8.45;5.03;;;;;;;;;;5070359;28;20527;-58
2023/02/19 01:43:22;;;;;;;6.72;4.85;;;;;;;;;;5069619;28;20060;-58
2023/02/19 01:45:47;;;;;;;6.38;4.55;;;;;;;;;;5068239;28;20110;-58
2023/02/19 01:48:24;;;;;;;8.70;4.88;;;;;;;;;;5061237;28;20033;-58
2023/02/19 01:50:53;;;;;;;7.55;4.80;;;;;;;;;;5063889;28;20055;-58
2023/02/19 01:53:24;;;;;;;8.73;5.03;;;;;;;;;;5063390;28;20378;-58
2023/02/19 01:55:52;;;;;;;8.23;4.90;;;;;;;;;;5068446;28;20054;-58
2023/02/19 01:58:18;;;;;;;7.30;5.05;;;;;;;;;;5069712;28;20029;-58
2023/02/19 02:00:44;;;;;;;9.05;4.85;;;;;;;;;;5070106;28;20070;-58
2023/02/19 02:03:10;;;;;;;8.10;4.78;;;;;;;;;;5068310;28;20027;-59
2023/02/19 02:06:08;;;;;;;7.72;4.22;;;;;;;;;;5067800;28;20127;-58
2023/02/19 02:11:19;;;;;;;8.13;4.50;;;;;;;;;;5066303;28;20035;-58
2023/02/19 02:13:45;;;;;;;6.10;4.30;;;;;;;;;;5067866;28;20032;-59
2023/02/19 02:16:21;;;;;;;6.05;4.20;;;;;;;;;;5072115;28;20492;-59
2023/02/19 02:19:14;;;;;;;6.65;4.50;;;;;;;;;;5067589;28;20120;-59
2023/02/19 02:22:06;;;;;;;7.25;4.20;;;;;;;;;;5068746;28;20032;-59
2023/02/19 02:24:53;;;;;;;8.30;4.30;;;;;;;;;;5068636;28;20020;-59
2023/02/19 02:27:50;;;;;;;7.32;4.15;;;;;;;;;;5068388;28;20031;-57
2023/02/19 02:30:15;;;;;;;7.05;3.90;;;;;;;;;;5067431;28;20016;-58
2023/02/19 02:32:52;;;;;;;10.38;4.90;;;;;;;;;;5065616;28;20701;-57
2023/02/19 02:35:24;;;;;;;7.28;4.18;;;;;;;;;;5069511;28;20039;-57
2023/02/19 02:37:54;;;;;;;7.68;3.85;;;;;;;;;;5068583;28;20051;-57
2023/02/19 02:40:20;;;;;;;6.10;4.03;;;;;;;;;;5068418;28;20037;-58
2023/02/19 02:42:46;;;;;;;6.35;3.85;;;;;;;;;;5065877;28;20081;-58
2023/02/19 02:45:34;;;;;;;6.15;3.90;;;;;;;;;;5069017;28;20308;-58
2023/02/19 02:48:33;;;;;;;6.95;4.05;;;;;;;;;;5065665;28;20035;-54
2023/02/19 02:51:04;;;;;;;5.93;3.67;;;;;;;;;;5069245;28;20067;-58
2023/02/19 02:56:40;;;;;;;5.97;3.67;;;;;;;;;;5067972;28;20040;-57
2023/02/19 02:59:08;;;;;;;8.18;3.60;;;;;;;;;;5068744;28;20103;-58
2023/02/19 03:04:29;;;;;;;6.38;3.28;;;;;;;;;;5067893;28;20035;-58
2023/02/19 03:06:56;;;;;;;7.70;3.95;;;;;;;;;;5067888;28;20112;-59
2023/02/19 03:09:31;;;;;;;7.82;3.90;;;;;;;;;;5068338;28;20036;-57
2023/02/19 03:20:23;;;;;;;4.63;3.17;;;;;;;;;;5066959;28;20082;-58
2023/02/19 03:22:51;;;;;;;7.78;3.50;;;;;;;;;;5067129;28;20110;-58
2023/02/19 03:28:10;;;;;;;5.47;3.50;;;;;;;;;;5067632;28;20565;-59
2023/02/19 03:30:40;;;;;;;4.38;2.90;;;;;;;;;;5067915;28;20104;-57
2023/02/19 03:33:12;;;;;;;4.10;2.70;;;;;;;;;;5069453;28;20033;-58
2023/02/19 03:35:43;;;;;;;4.57;3.10;;;;;;;;;;5065414;28;20111;-58
2023/02/19 03:38:17;;;;;;;4.90;2.97;;;;;;;;;;5066777;28;20673;-58
2023/02/19 03:41:11;;;;;;;5.05;3.15;;;;;;;;;;5065525;28;20043;-57
2023/02/19 03:43:43;;;;;;;4.07;2.53;;;;;;;;;;5068131;28;20028;-58
2023/02/19 03:46:13;;;;;;;4.60;2.95;;;;;;;;;;5066962;28;20461;-58
2023/02/19 03:49:22;;;;;;;5.53;3.08;;;;;;;;;;5062275;28;20552;-59
2023/02/19 03:52:21;;;;;;;5.25;2.90;;;;;;;;;;5019032;28;20038;-59
2023/02/19 03:55:07;;;;;;;5.65;3.15;;;;;;;;;;5059285;28;20089;-58
2023/02/19 03:57:52;;;;;;;4.53;2.78;;;;;;;;;;5065940;28;20024;-58
2023/02/19 04:00:44;;;;;;;5.53;3.08;;;;;;;;;;5065139;28;20112;-58
2023/02/19 04:03:28;;;;;;;5.07;3.50;;;;;;;;;;5068124;28;20063;-59
2023/02/19 04:06:14;;;;;;;4.45;3.15;;;;;;;;;;5066922;28;20028;-59
2023/02/19 04:08:45;;;;;;;7.00;3.50;;;;;;;;;;5066355;28;20034;-59
2023/02/19 04:11:10;;;;;;;5.00;3.50;;;;;;;;;;5068459;28;20525;-58
2023/02/19 04:13:43;;;;;;;5.25;3.50;;;;;;;;;;5068420;28;20698;-59
2023/02/19 04:16:16;;;;;;;6.38;3.92;;;;;;;;;;5067116;28;20017;-58
2023/02/19 04:18:43;;;;;;;5.38;3.42;;;;;;;;;;5070449;28;20119;-58
2023/02/19 04:21:09;;;;;;;8.38;3.53;;;;;;;;;;5071829;28;20059;-59
2023/02/19 04:23:39;;;;;;;8.45;3.50;;;;;;;;;;5070766;28;20450;-58
2023/02/19 04:26:06;;;;;;;4.22;3.40;;;;;;;;;;5069380;28;20034;-59
2023/02/19 04:28:33;;;;;;;5.65;3.58;;;;;;;;;;5067696;28;20032;-58
2023/02/19 04:30:58;;;;;;;4.55;3.00;;;;;;;;;;5068198;28;20570;-58
2023/02/19 04:33:23;;;;;;;3.97;2.90;;;;;;;;;;5066043;28;20132;-58
2023/02/19 04:35:49;;;;;;;5.13;3.38;;;;;;;;;;5071545;28;20013;-59
2023/02/19 04:38:14;;;;;;;3.70;3.00;;;;;;;;;;5070527;28;20406;-57
2023/02/19 04:40:39;;;;;;;4.28;3.00;;;;;;;;;;5071457;28;20051;-59
2023/02/19 04:43:05;;;;;;;5.88;3.67;;;;;;;;;;5068613;28;20024;-59
2023/02/19 04:45:30;;;;;;;5.15;2.92;;;;;;;;;;5068481;28;20067;-59
2023/02/19 04:47:59;;;;;;;7.18;4.57;;;;;;;;;;5064505;28;20578;-59
2023/02/19 04:50:25;;;;;;;5.57;3.30;;;;;;;;;;5068791;28;20052;-59
2023/02/19 04:52:50;;;;;;;3.65;2.88;;;;;;;;;;5071981;28;20055;-59
2023/02/19 04:55:16;;;;;;;5.35;3.08;;;;;;;;;;5070750;28;20028;-58
2023/02/19 04:57:41;;;;;;;3.78;2.97;;;;;;;;;;5060009;28;20066;-58
2023/02/19 05:00:08;;;;;;;5.45;3.63;;;;;;;;;;5070455;28;20032;-59
2023/02/19 05:02:33;;;;;;;3.97;2.58;;;;;;;;;;5065736;28;20032;-58
2023/02/19 05:04:59;;;;;;;4.07;3.00;;;;;;;;;;5065530;28;20104;-58
2023/02/19 05:07:24;;;;;;;3.33;2.83;;;;;;;;;;5067587;28;20055;-59
2023/02/19 05:09:49;;;;;;;5.10;3.20;;;;;;;;;;5070232;28;20531;-58
2023/02/19 05:12:15;;;;;;;6.88;3.35;;;;;;;;;;5071512;28;20013;-58
2023/02/19 05:14:40;;;;;;;4.82;3.42;;;;;;;;;;5069093;28;20082;-58
2023/02/19 05:17:05;;;;;;;5.88;3.40;;;;;;;;;;5070805;28;20029;-58
2023/02/19 05:19:31;;;;;;;6.00;3.60;;;;;;;;;;5069101;28;20024;-58
2023/02/19 05:21:56;;;;;;;5.25;3.72;;;;;;;;;;5069022;28;20086;-58
2023/02/19 05:24:23;;;;;;;6.20;3.58;;;;;;;;;;5068852;28;20054;-58
2023/02/19 05:26:49;;;;;;;5.60;3.50;;;;;;;;;;5067469;28;20029;-58
2023/02/19 05:29:14;;;;;;;5.75;3.70;;;;;;;;;;5062739;28;20024;-58
2023/02/19 05:31:40;;;;;;;5.45;3.42;;;;;;;;;;5068969;28;20590;-59
2023/02/19 05:34:05;;;;;;;5.43;3.10;;;;;;;;;;5071478;28;20505;-58
2023/02/19 05:36:31;;;;;;;4.97;3.35;;;;;;;;;;5067087;28;20078;-58
2023/02/19 05:38:57;;;;;;;3.85;3.17;;;;;;;;;;5069817;28;20046;-58
2023/02/19 05:41:25;;;;;;;5.10;3.65;;;;;;;;;;5069349;28;20112;-59
2023/02/19 05:43:51;;;;;;;6.18;3.08;;;;;;;;;;5070922;28;20043;-59
2023/02/19 05:46:19;;;;;;;4.30;3.00;;;;;;;;;;5070098;28;20029;-58
2023/02/19 05:48:48;;;;;;;7.25;3.35;;;;;;;;;;5068992;28;20039;-58
2023/02/19 05:51:17;;;;;;;6.10;3.70;;;;;;;;;;5067764;28;20032;-58
2023/02/19 05:53:44;;;;;;;4.63;3.37;;;;;;;;;;5068184;28;20047;-59
2023/02/19 05:56:38;;;;;;;3.63;2.75;;;;;;;;;;5065504;28;20644;-58
2023/02/19 05:59:15;;;;;;;6.28;3.13;;;;;;;;;;5068177;28;20447;-58
2023/02/19 06:01:41;;;;;;;4.38;2.72;;;;;;;;;;5070053;28;20399;-58
2023/02/19 06:04:08;;;;;;;5.40;2.80;;;;;;;;;;5070516;28;20032;-58
2023/02/19 06:06:33;;;;;;;4.38;2.70;;;;;;;;;;5068952;28;20159;-57
2023/02/19 06:08:59;;;;;;;4.75;2.70;;;;;;;;;;5067940;28;20107;-57
2023/02/19 06:11:24;;;;;;;4.10;2.78;;;;;;;;;;5069439;28;20039;-58
2023/02/19 06:13:50;;;;;;;4.95;2.78;;;;;;;;;;5069757;28;20028;-57
2023/02/19 06:16:16;;;;;;;5.28;2.75;;;;;;;;;;5069333;28;20024;-58
2023/02/19 06:18:42;;;;;;;4.93;2.40;;;;;;;;;;5065345;28;20047;-58
2023/02/19 06:21:09;;;;;;;6.22;2.95;;;;;;;;;;5067681;28;20024;-58
2023/02/19 06:23:35;;;;;;;5.75;3.33;;;;;;;;;;5067350;28;20555;-58
2023/02/19 06:26:14;;;;;;;10.43;4.13;;;;;;;;;;5069483;28;20060;-56
2023/02/19 06:28:41;;;;;;;6.80;3.55;;;;;;;;;;5068055;28;20025;-59
2023/02/19 06:31:07;;;;;;;6.00;3.05;;;;;;;;;;5064498;28;20062;-57
2023/02/19 06:33:34;;;;;;;6.18;3.60;;;;;;;;;;5064773;28;20103;-58
2023/02/19 06:36:02;;;;;;;4.53;2.78;;;;;;;;;;5065339;28;20107;-58
2023/02/19 06:38:28;;;;;;;4.45;2.85;;;;;;;;;;5069666;28;20020;-58
2023/02/19 06:40:54;;;;;;;4.18;2.67;;;;;;;;;;5069858;28;20033;-58
2023/02/19 06:43:19;;;;;;;5.07;2.80;;;;;;;;;;5069095;28;20182;-57
2023/02/19 06:45:44;;;;;;;5.05;2.63;;;;;;;;;;5068800;28;20025;-58
2023/02/19 06:48:10;;;;;;;4.40;2.95;;;;;;;;;;5067295;28;20036;-58
2023/02/19 06:50:35;;;;;;;6.30;3.08;;;;;;;;;;5069064;28;20032;-57
2023/02/19 06:53:01;;;;;;;7.20;2.95;;;;;;;;;;5069225;28;20502;-58
2023/02/19 06:55:26;;;;;;;4.15;2.97;;;;;;;;;;5068401;28;20028;-58
2023/02/19 06:57:51;;;;;;;4.45;3.13;;;;;;;;;;5067425;28;20036;-58
2023/02/19 07:00:17;;;;;;;3.83;2.90;;;;;;;;;;5067085;28;20404;-58
2023/02/19 07:02:43;;;;;;;2.85;2.30;;;;;;;;;;5068944;28;20037;-57
2023/02/19 07:05:08;;;;;;;2.67;2.28;;;;;;;;;;5069236;28;20033;-57
2023/02/19 07:07:33;;;;;;;3.03;1.80;;;;;;;;;;5068036;28;20100;-57
2023/02/19 07:09:59;;;;;;;2.80;2.22;;;;;;;;;;5069208;28;20032;-58
2023/02/19 07:12:24;;;;;;;2.75;1.77;;;;;;;;;;5068069;28;20386;-58
2023/02/19 07:14:50;;;;;;;2.05;1.48;;;;;;;;;;5067999;28;20032;-56
2023/02/19 07:17:15;;;;;;;2.78;1.80;;;;;;;;;;5071426;28;20033;-56
2023/02/19 07:19:40;;;;;;;1.95;1.60;;;;;;;;;;5069048;28;20106;-58
2023/02/19 07:22:06;;;;;;;3.45;2.00;;;;;;;;;;5068641;28;20044;-55
2023/02/19 07:24:31;;;;;;;5.57;2.70;;;;;;;;;;5068739;28;20696;-56
2023/02/19 07:26:56;;;;;;;3.08;1.70;;;;;;;;;;5065345;28;20083;-58
2023/02/19 07:29:22;;;;;;;4.40;2.50;;;;;;;;;;5065082;28;20520;-57
2023/02/19 07:31:47;;;;;;;3.08;1.85;;;;;;;;;;5065833;28;20102;-58
2023/02/19 07:34:12;;;;;;;1.58;1.30;;;;;;;;;;5061688;28;20024;-58
2023/02/19 07:36:38;;;;;;;1.45;1.05;;;;;;;;;;5067770;28;20036;-58
2023/02/19 07:39:04;;;;;;;2.08;1.20;;;;;;;;;;5067999;28;20417;-57
2023/02/19 07:41:29;;;;;;;1.63;1.50;;;;;;;;;;5063818;28;20038;-58
2023/02/19 07:43:54;;;;;;;1.88;1.60;;;;;;;;;;5066467;28;20029;-58
2023/02/19 07:46:20;;;;;;;1.55;1.40;;;;;;;;;;5068270;28;20033;-57
2023/02/19 07:48:46;;;;;;;1.27;1.17;;;;;;;;;;5068463;28;20063;-56
2023/02/19 07:51:17;;;;;;;2.05;1.55;;;;;;;;;;5067473;28;20048;-58
2023/02/19 07:53:47;;;;;;;2.45;1.88;;;;;;;;;;5070202;28;20043;-58
2023/02/19 07:56:13;;;;;;;3.38;2.03;;;;;;;;;;5072643;28;20025;-57
2023/02/19 07:58:38;;;;;;;1.40;1.10;;;;;;;;;;5062833;28;20119;-57
2023/02/19 08:01:13;;;;;;;1.85;1.40;;;;;;;;;;5065901;28;20027;-58
2023/02/19 08:03:39;;;;;;;3.38;1.80;;;;;;;;;;5072083;28;20403;-58
2023/02/19 08:06:05;;;;;;;2.17;1.50;;;;;;;;;;5071286;28;20211;-58
2023/02/19 08:08:30;;;;;;;3.20;1.65;;;;;;;;;;5071144;28;20063;-58
2023/02/19 08:13:43;;;;;;;2.67;1.85;;;;;;;;;;5071151;28;20525;-58
2023/02/19 08:16:12;;;;;;;1.83;1.30;;;;;;;;;;5071734;28;20028;-57
2023/02/19 08:18:37;;;;;;;1.53;1.30;;;;;;;;;;5070229;28;20036;-58
2023/02/19 08:21:03;;;;;;;2.22;1.95;;;;;;;;;;5071591;28;20559;-57
2023/02/19 08:23:28;;;;;;;2.55;1.70;;;;;;;;;;5072207;28;20478;-58
2023/02/19 08:25:58;;;;;;;2.05;1.40;;;;;;;;;;5072181;28;20061;-57
2023/02/19 08:28:24;;;;;;;;;;;;;;;;;;5070573;28;20081;-58
2023/02/19 08:30:49;;;;;;;1.80;1.30;;;;;;;;;;5072195;28;19920;-58
2023/02/19 08:33:17;;;;;;;2.95;1.98;;;;;;;;;;5064521;28;20055;-58
2023/02/19 08:35:43;;;;;;;3.20;2.20;;;;;;;;;;5067492;28;20028;-58
2023/02/19 08:38:10;;;;;;;3.22;2.20;;;;;;;;;;5065957;28;20478;-58
2023/02/19 08:40:37;;;;;;;2.45;1.63;;;;;;;;;;5071265;28;20259;-58
2023/02/19 08:43:12;;;;;;;3.30;2.38;;;;;;;;;;5071354;28;20490;-58
2023/02/19 08:45:39;;;;;;;2.50;1.90;;;;;;;;;;5072252;28;20111;-58
2023/02/19 08:48:05;;;;;;;2.65;1.90;;;;;;;;;;5069458;28;20028;-58
2023/02/19 08:50:30;;;;;;;2.08;1.55;;;;;;;;;;5071643;28;20393;-57
2023/02/19 08:52:58;;;;;;;2.15;1.90;;;;;;;;;;5072071;28;20031;-58
2023/02/19 08:55:24;;;;;;;2.40;1.95;;;;;;;;;;5071280;28;20103;-58
2023/02/19 08:57:49;;;;;;;3.05;1.90;;;;;;;;;;5062335;28;20111;-58
2023/02/19 09:00:15;;;;;;;4.57;2.50;;;;;;;;;;5071252;28;20028;-58
2023/02/19 09:02:40;;;;;;;4.72;2.10;;;;;;;;;;5071069;28;20072;-57
2023/02/19 09:05:06;;;;;;;4.25;2.97;;;;;;;;;;5071142;28;20028;-57
2023/02/19 09:07:31;;;;;;;2.53;2.00;;;;;;;;;;5069670;28;20028;-58
2023/02/19 09:09:57;;;;;;;1.90;1.40;;;;;;;;;;5070623;28;20398;-58
2023/02/19 09:12:23;;;;;;;7.22;2.80;;;;;;;;;;5069932;28;20098;-58
2023/02/19 09:14:49;;;;;;;5.85;3.05;;;;;;;;;;5069805;28;20029;-58
2023/02/19 09:17:14;;;;;;;5.15;2.88;;;;;;;;;;5069946;28;20025;-57
2023/02/19 09:19:40;;;;;;;3.88;2.22;;;;;;;;;;5067882;28;20021;-58
2023/02/19 09:22:05;;;;;;;2.08;1.85;;;;;;;;;;5069174;28;20055;-58
2023/02/19 09:24:31;;;;;;;2.03;1.70;;;;;;;;;;5068265;28;20021;-57
2023/02/19 09:26:57;;;;;;;2.90;2.25;;;;;;;;;;5067343;28;20074;-57
2023/02/19 09:29:27;;;;;;;2.47;1.85;;;;;;;;;;5066667;28;20024;-57
2023/02/19 09:31:57;;;;;;;2.17;1.95;;;;;;;;;;5067001;28;20132;-57
2023/02/19 09:34:23;;;;;;;4.72;2.83;;;;;;;;;;5070561;28;20033;-57
2023/02/19 09:36:49;;;;;;;3.80;2.53;;;;;;;;;;5069697;28;20485;-57
2023/02/19 09:39:14;;;;;;;5.38;2.08;;;;;;;;;;5065031;28;20036;-58
2023/02/19 09:41:48;;;;;;;3.08;2.00;;;;;;;;;;5065257;28;20417;-57
2023/02/19 09:44:24;;;;;;;5.22;1.80;;;;;;;;;;5061680;28;20025;-58
2023/02/19 09:46:53;;;;;;;2.80;1.90;;;;;;;;;;5069546;28;20532;-53
2023/02/19 09:49:26;;;;;;;3.80;2.30;;;;;;;;;;5069128;28;20492;-58
2023/02/19 09:52:07;;;;;;;3.42;2.50;;;;;;;;;;5070334;28;20488;-57
2023/02/19 09:54:35;;;;;;;2.70;2.08;;;;;;;;;;5069678;28;20036;-57
2023/02/19 09:57:01;;;;;;;5.97;2.85;;;;;;;;;;5068563;28;20047;-57
2023/02/19 09:59:34;;;;;;;2.60;1.85;;;;;;;;;;5067340;28;20028;-58
2023/02/19 10:02:12;;;;;;;2.50;1.70;;;;;;;;;;5070334;28;20021;-58
2023/02/19 10:04:41;;;;;;;1.85;1.55;;;;;;;;;;5068347;28;20033;-58
2023/02/19 10:07:15;;;;;;;3.70;2.08;;;;;;;;;;5068835;28;20094;-58
2023/02/19 10:09:44;;;;;;;5.78;2.50;;;;;;;;;;5071786;28;20032;-57
2023/02/19 10:12:23;;;;;;;4.50;2.75;;;;;;;;;;5068642;28;20036;-58
2023/02/19 10:14:51;;;;;;;4.35;2.80;;;;;;;;;;5068039;28;20029;-58
2023/02/19 10:17:24;;;;;;;8.23;3.33;;;;;;;;;;5066503;28;20023;-58
2023/02/19 10:19:51;;;;;;;4.43;2.85;;;;;;;;;;5069847;28;20031;-57
2023/02/19 10:22:20;;;;;;;5.15;2.58;;;;;;;;;;5070337;28;20489;-58
2023/02/19 10:24:50;;;;;;;3.55;2.60;;;;;;;;;;5067860;28;20059;-58
2023/02/19 10:27:16;;;;;;;4.95;3.22;;;;;;;;;;5068128;28;20036;-58
2023/02/19 10:29:43;;;;;;;3.63;2.35;;;;;;;;;;5063622;28;20032;-58
2023/02/19 10:32:12;;;;;;;3.95;2.90;;;;;;;;;;5069555;28;20070;-58
2023/02/19 10:34:37;;;;;;;4.93;2.90;;;;;;;;;;5068731;28;20560;-58
2023/02/19 10:37:03;;;;;;;3.88;2.72;;;;;;;;;;5061792;28;20048;-58
2023/02/19 10:39:41;;;;;;;4.30;2.80;;;;;;;;;;5063326;28;20029;-58
2023/02/19 10:42:14;;;;;;;4.45;2.90;;;;;;;;;;5061893;28;20036;-57
2023/02/19 10:44:44;;;;;;;4.07;2.50;;;;;;;;;;5066814;28;20066;-58
2023/02/19 10:47:17;;;;;;;4.32;2.72;;;;;;;;;;5068591;28;20024;-58
2023/02/19 10:49:44;;;;;;;5.18;3.10;;;;;;;;;;5069404;28;20123;-58
2023/02/19 10:52:22;;;;;;;4.78;2.50;;;;;;;;;;5068055;28;20481;-58
2023/02/19 10:55:23;;;;;;;10.30;2.65;;;;;;;;;;5068825;28;20037;-58
2023/02/19 10:57:49;;;;;;;5.93;3.50;;;;;;;;;;5066554;28;20086;-58
2023/02/19 11:00:14;;;;;;;4.43;2.80;;;;;;;;;;5069854;28;20024;-58
2023/02/19 11:02:41;;;;;;;6.80;2.70;;;;;;;;;;5068346;28;20369;-58
2023/02/19 11:05:19;;;;;;;2.97;2.25;;;;;;;;;;5075352;28;20029;-57
2023/02/19 11:07:57;;;;;;;2.80;2.53;;;;;;;;;;5067786;28;20032;-58
2023/02/19 11:10:35;;;;;;;4.45;2.42;;;;;;;;;;5066483;28;20454;-58
2023/02/19 11:13:03;;;;;;;3.33;2.42;;;;;;;;;;5065852;28;20039;-58
2023/02/19 11:15:32;;;;;;;5.93;2.20;;;;;;;;;;5066887;28;20421;-58
2023/02/19 11:18:25;;;;;;;6.28;2.90;;;;;;;;;;5065093;28;20028;-58
2023/02/19 11:20:53;;;;;;;8.25;3.78;;;;;;;;;;5064526;28;20036;-58
2023/02/19 11:23:34;;;;;;;7.78;4.00;;;;;;;;;;5068216;28;20040;-58
2023/02/19 11:26:03;;;;;;;4.95;2.50;;;;;;;;;;5069719;28;20081;-57
2023/02/19 11:28:40;;;;;;;4.03;1.98;;;;;;;;;;5072316;28;20028;-57
2023/02/19 11:31:13;;;;;;;4.53;2.13;;;;;;;;;;5072175;28;20401;-57
2023/02/19 11:33:44;;;;;;;3.35;1.55;;;;;;;;;;5073067;28;20095;-57
2023/02/19 11:36:22;;;;;;;4.50;1.60;;;;;;;;;;5068779;28;20103;-57
2023/02/19 11:38:48;;;;;;;8.77;3.78;;;;;;;;;;5067105;28;20100;-57
2023/02/19 11:41:52;;;;;;;5.15;1.80;;;;;;;;;;5072412;28;20033;-58
2023/02/19 11:44:42;;;;;;;1.60;1.50;;;;;;;;;;5071893;28;20037;-58
2023/02/19 11:47:35;;;;;;;3.17;1.60;;;;;;;;;;5072242;28;20061;-57
2023/02/19 11:50:13;;;;;;;4.20;2.05;;;;;;;;;;5065881;28;20111;-57
2023/02/19 11:52:50;;;;;;;4.07;2.22;;;;;;;;;;5072385;28;20031;-57
2023/02/19 11:55:56;;;;;;;5.47;2.08;;;;;;;;;;5072173;28;20027;-56
2023/02/19 11:58:58;;;;;;;5.78;2.58;;;;;;;;;;5060851;28;20774;-58
2023/02/19 12:01:51;;;;;;;4.45;1.98;;;;;;;;;;5071659;28;20029;-59
2023/02/19 12:04:20;;;;;;;3.50;2.08;;;;;;;;;;5072869;28;20078;-58
2023/02/19 12:06:59;;;;;;;5.28;1.90;;;;;;;;;;5071060;28;20059;-57
2023/02/19 12:09:42;;;;;;;5.47;2.33;;;;;;;;;;5070954;28;20020;-57
2023/02/19 12:12:46;;;;;;;3.92;2.13;;;;;;;;;;5067963;28;20090;-56
2023/02/19 12:15:19;;;;;;;4.47;2.13;;;;;;;;;;5008006;28;20034;-56
2023/02/19 12:18:05;;;;;;;7.63;2.03;;;;;;;;;;5029226;28;20032;-56
2023/02/19 12:21:00;;;;;;;4.30;1.80;;;;;;;;;;5072084;28;20534;-56
2023/02/19 12:23:31;;;;;;;6.82;1.95;;;;;;;;;;5068797;28;20040;-56
2023/02/19 12:26:03;;;;;;;3.38;1.80;;;;;;;;;;5072606;28;20506;-57
2023/02/19 12:28:34;;;;;;;9.63;3.40;;;;;;;;;;5069306;28;20507;-56
2023/02/19 12:31:34;;;;;;;6.00;2.33;;;;;;;;;;5066394;28;20475;-59
2023/02/19 12:34:02;;;;;;;5.50;1.60;;;;;;;;;;5057676;28;20119;-56
2023/02/19 12:36:49;;;;;;;3.65;1.70;;;;;;;;;;5066725;28;20019;-58
2023/02/19 12:39:30;;;;;;;4.97;1.70;;;;;;;;;;5068471;28;20546;-58
2023/02/19 12:42:59;;;;;;;4.95;1.63;;;;;;;;;;5070725;28;20056;-59
2023/02/19 12:45:39;;;;;;;3.10;1.30;;;;;;;;;;5057474;28;20171;-59
2023/02/19 12:48:10;;;;;;;6.57;1.52;;;;;;;;;;5069646;28;20051;-56
2023/02/19 12:50:38;;;;;;;3.38;1.15;;;;;;;;;;5071484;28;20052;-59
2023/02/19 12:53:51;;;;;;;4.82;1.42;;;;;;;;;;5071049;28;20115;-57
2023/02/19 12:56:28;;;;;;;3.83;1.30;;;;;;;;;;5037334;28;20413;-56
2023/02/19 12:59:08;;;;;;;2.67;1.10;;;;;;;;;;5064018;28;20493;-56
2023/02/19 13:01:45;;;;;;;2.80;1.20;;;;;;;;;;5071285;28;20035;-57
2023/02/19 13:04:40;;;;;;;3.45;1.35;;;;;;;;;;5067447;28;20052;-57
2023/02/19 13:07:19;;;;;;;4.05;1.90;;;;;;;;;;5068439;28;20707;-57
2023/02/19 13:09:57;;;;;;;3.85;1.40;;;;;;;;;;5068156;28;20128;-58
2023/02/19 13:12:24;;;;;;;4.32;1.73;;;;;;;;;;5068001;28;20024;-56
2023/02/19 13:15:19;;;;;;;4.65;1.90;;;;;;;;;;5068616;28;20393;-57
2023/02/19 13:17:48;;;;;;;5.22;1.63;;;;;;;;;;5068728;28;20033;-59
2023/02/19 13:20:28;;;;;;;3.60;1.70;;;;;;;;;;5068637;28;20029;-57
2023/02/19 13:26:44;;;;;;;3.20;1.38;;;;;;;;;;5069651;28;20039;-56
2023/02/19 13:29:37;;;;;;;6.53;1.55;;;;;;;;;;5068279;28;20077;-58
2023/02/19 13:32:50;;;;;;;7.72;2.22;;;;;;;;;;5071203;28;20089;-58
2023/02/19 13:35:24;;;;;;;2.90;1.90;;;;;;;;;;5008310;28;20177;-58
2023/02/19 13:37:52;;;;;;;3.95;1.50;;;;;;;;;;5059793;28;20048;-58
2023/02/19 13:40:23;;;;;;;4.03;1.85;;;;;;;;;;5070175;28;20035;-58
2023/02/19 13:42:57;;;;;;;2.78;1.65;;;;;;;;;;5070425;28;20082;-57
2023/02/19 13:45:37;;;;;;;5.50;1.58;;;;;;;;;;5068465;28;20024;-57
2023/02/19 13:48:25;;;;;;;;;;;;;;;;;;5069035;28;20405;-57
2023/02/19 13:51:11;;;;;;;11.90;2.30;;;;;;;;;;5067068;28;19912;-57
2023/02/19 13:53:39;;;;;;;5.03;1.80;;;;;;;;;;5058728;28;20040;-58
2023/02/19 13:56:33;;;;;;;6.57;2.03;;;;;;;;;;5069963;28;20052;-58
2023/02/19 13:59:11;;;;;;;4.93;1.90;;;;;;;;;;5068827;28;20406;-58
2023/02/19 14:01:51;;;;;;;7.70;1.90;;;;;;;;;;5068822;28;20442;-58
2023/02/19 14:04:25;;;;;;;3.47;1.58;;;;;;;;;;5069775;28;20119;-57
2023/02/19 14:07:03;;;;;;;6.20;2.60;;;;;;;;;;5073731;28;20036;-58
2023/02/19 14:09:42;;;;;;;6.10;2.40;;;;;;;;;;5075440;28;20405;-58
2023/02/19 14:12:16;;;;;;;6.03;2.65;;;;;;;;;;5068135;28;20024;-58
2023/02/19 14:14:44;;;;;;;8.85;2.00;;;;;;;;;;5070536;28;20036;-58
2023/02/19 14:17:25;;;;;;;4.72;2.20;;;;;;;;;;5071548;28;20066;-57
2023/02/19 14:20:15;;;;;;;3.78;1.80;;;;;;;;;;5070242;28;20024;-56
2023/02/19 14:22:44;;;;;;;2.35;1.60;;;;;;;;;;5068686;28;20024;-57
2023/02/19 14:25:30;;;;;;;3.80;1.38;;;;;;;;;;5064061;28;20055;-57
2023/02/19 14:28:35;;;;;;;7.85;2.80;;;;;;;;;;5064708;28;20059;-57
2023/02/19 14:31:28;;;;;;;5.78;2.10;;;;;;;;;;5067396;28;20437;-58
2023/02/19 14:33:57;;;;;;;8.43;2.67;;;;;;;;;;5065649;28;20040;-58
2023/02/19 14:36:47;;;;;;;5.63;2.13;;;;;;;;;;5068193;28;20103;-58
2023/02/19 14:39:12;;;;;;;6.78;2.55;;;;;;;;;;5060679;28;20448;-58
2023/02/19 14:41:43;;;;;;;2.65;1.65;;;;;;;;;;5067802;28;20044;-58
2023/02/19 14:44:16;;;;;;;4.55;1.92;;;;;;;;;;5070860;28;20024;-58
2023/02/19 14:46:52;;;;;;;3.30;2.00;;;;;;;;;;5066549;28;20048;-59
2023/02/19 14:49:20;;;;;;;3.28;2.13;;;;;;;;;;5065517;28;20028;-57
2023/02/19 14:51:51;;;;;;;3.20;1.80;;;;;;;;;;5063095;28;20025;-57
2023/02/19 14:54:20;;;;;;;6.90;1.98;;;;;;;;;;5068730;28;20452;-56
2023/02/19 14:56:48;;;;;;;;;;;;;;;;;;5093062;28;20028;-57
2023/02/19 14:59:27;;;;;;;7.60;2.90;;;;;;;;;;5067674;28;20301;-57
2023/02/19 15:02:16;;;;;;;5.75;2.22;;;;;;;;;;5067143;28;20033;-57
2023/02/19 15:04:42;;;;;;;5.35;2.50;;;;;;;;;;5057058;28;20394;-57
2023/02/19 15:07:13;;;;;;;4.63;2.10;;;;;;;;;;5068332;28;20024;-57
2023/02/19 15:09:43;;;;;;;4.55;1.90;;;;;;;;;;5068813;28;20031;-57
2023/02/19 15:12:20;;;;;;;7.65;2.90;;;;;;;;;;5069350;28;20060;-57
2023/02/19 15:14:48;;;;;;;4.28;2.70;;;;;;;;;;5062958;28;20028;-58
2023/02/19 15:17:21;;;;;;;7.60;2.90;;;;;;;;;;5073888;28;20025;-58
2023/02/19 15:19:47;;;;;;;6.10;2.03;;;;;;;;;;5062871;28;20034;-58
2023/02/19 15:22:20;;;;;;;5.82;2.00;;;;;;;;;;5065445;28;20028;-58
2023/02/19 15:24:45;;;;;;;5.60;2.30;;;;;;;;;;5062365;28;20032;-58
2023/02/19 15:27:20;;;;;;;7.40;1.90;;;;;;;;;;5062865;28;20039;-57
2023/02/19 15:29:47;;;;;;;8.48;3.83;;;;;;;;;;5067835;28;20036;-58
2023/02/19 15:32:20;;;;;;;6.20;2.40;;;;;;;;;;5064005;28;20498;-57
2023/02/19 15:34:59;;;;;;;7.05;3.45;;;;;;;;;;5063422;28;20405;-58
2023/02/19 15:37:34;;;;;;;6.00;2.50;;;;;;;;;;5069310;28;20021;-56